Sukran S — TCKB — position and weather

sailwx.info

Track history (hours):
 
Tides and Currents Weather Stations Pressure Air Temp Water Temp Dewpoint Dewpoint Depression Visibility Wind Speed Wind Dir Waves Ship Positions

Sukran S

Last reported at 2016-Aug-23 00:07 UTC. Time now 2016-Aug-24 08:33 UTC.
Position N 40°25' E 029°05'.

Length 108 m; draft 7.4 m.

Type: Cargo ship. MMSI: 271000056.

Date/timePositionNaut miles runAvg speedWind from/ knotsBaromVisibWave heightAir tempDewpointWater temp
2016-Aug-23 00:07N 40°25' E 029°05'0 0.0
2016-Aug-22 23:31N 40°25' E 029°05'0 0.0
2016-Aug-22 22:31N 40°25' E 029°05'0 0.0
2016-Aug-22 21:25N 40°25' E 029°05'0 0.0
2016-Aug-22 18:13N 40°25' E 029°05'0 0.0
2016-Aug-22 17:32N 40°25' E 029°05'0 0.0
2016-Aug-22 11:32N 40°25' E 029°05'0 0.0
2016-Aug-22 04:21N 40°25' E 029°05'0 0.0
2016-Aug-22 02:15N 40°25' E 029°05'0 0.0
2016-Aug-21 18:28N 40°25' E 029°05'0 0.0
2016-Aug-21 17:22N 40°25' E 029°05'0 0.0
2016-Aug-21 16:22N 40°25' E 029°05'0 0.0
2016-Aug-21 14:28N 40°25' E 029°05'0 0.0
2016-Aug-21 13:10N 40°25' E 029°05'26 0.8
2016-Aug-20 05:27N 40°49' E 028°53'1110.4
2016-Aug-20 04:25N 40°59' E 028°59'217 6.2
2016-Aug-18 17:32N 44°27' E 030°23'21 9.7
2016-Aug-18 15:23N 44°47' E 030°32'9 9.5
2016-Aug-18 14:28N 44°55' E 030°35'74 9.3
2016-Aug-18 06:31N 46°06' E 031°04'9 9.3
2016-Aug-18 05:33N 46°13' E 030°57'9 8.7
2016-Aug-18 04:33N 46°22' E 030°55'9 9.0
2016-Aug-18 03:33N 46°31' E 030°55'7 7.4
2016-Aug-18 02:33N 46°34' E 031°05'8 7.7
2016-Aug-18 01:33N 46°35' E 031°16'9 9.4
2016-Aug-18 00:33N 46°36' E 031°29'9 9.1
2016-Aug-17 23:33N 46°36' E 031°43'9 8.7
2016-Aug-17 22:33N 46°38' E 031°55'9 8.6
2016-Aug-17 21:33N 46°47' E 031°53'4 3.1
2016-Aug-17 20:13N 46°50' E 031°57'0 0.0
2016-Aug-17 19:18N 46°50' E 031°57'0 0.0
2016-Aug-17 18:30N 46°50' E 031°57'0 0.0
2016-Aug-17 17:33N 46°50' E 031°57'0 0.0
2016-Aug-17 16:32N 46°50' E 031°57'0 0.0
2016-Aug-17 15:32N 46°50' E 031°57'0 0.0
2016-Aug-17 14:33N 46°50' E 031°57'0 0.0
2016-Aug-17 13:32N 46°50' E 031°57'0 0.0
2016-Aug-17 12:31N 46°50' E 031°57'0 0.0
2016-Aug-17 11:33N 46°50' E 031°57'0 0.0
2016-Aug-17 10:33N 46°50' E 031°57'0 0.0
2016-Aug-17 09:33N 46°50' E 031°57'0 0.0
2016-Aug-17 08:33N 46°50' E 031°57'0 0.0
2016-Aug-17 07:33N 46°50' E 031°57'0 0.0
2016-Aug-17 06:19N 46°50' E 031°57'0 0.0
2016-Aug-17 05:32N 46°50' E 031°57'0 0.0
2016-Aug-17 04:29N 46°50' E 031°57'0 0.0
2016-Aug-17 03:32N 46°50' E 031°57'0 0.0
2016-Aug-17 02:31N 46°50' E 031°57'0 0.0
2016-Aug-17 01:32N 46°50' E 031°57'0 0.0
2016-Aug-17 00:29N 46°50' E 031°57'0 0.0
2016-Aug-16 23:31N 46°50' E 031°57'0 0.0
2016-Aug-16 22:31N 46°50' E 031°57'0 0.0
2016-Aug-16 21:32N 46°50' E 031°57'0 0.0
2016-Aug-16 20:32N 46°50' E 031°57'0 0.0
2016-Aug-16 19:30N 46°50' E 031°57'0 0.0
2016-Aug-16 18:26N 46°50' E 031°57'0 0.0
2016-Aug-16 17:31N 46°50' E 031°57'0 0.0
2016-Aug-16 16:32N 46°50' E 031°57'0 0.0
2016-Aug-16 15:32N 46°50' E 031°57'0 0.0
2016-Aug-16 14:31N 46°50' E 031°57'0 0.0
2016-Aug-16 13:33N 46°50' E 031°57'0 0.0
2016-Aug-16 12:31N 46°50' E 031°57'0 0.0
2016-Aug-16 11:32N 46°50' E 031°57'0 0.0
2016-Aug-16 10:33N 46°50' E 031°57'0 0.0
2016-Aug-16 09:32N 46°50' E 031°57'0 0.0
2016-Aug-16 08:33N 46°50' E 031°57'0 0.0
2016-Aug-16 07:31N 46°50' E 031°57'0 0.0
2016-Aug-16 04:31N 46°50' E 031°57'0 0.0
2016-Aug-16 03:32N 46°50' E 031°57'0 0.0
2016-Aug-16 02:30N 46°50' E 031°57'0 0.0
2016-Aug-16 01:33N 46°50' E 031°57'0 0.0
2016-Aug-16 00:33N 46°50' E 031°57'2 2.0
2016-Aug-15 23:33N 46°49' E 031°55'8 8.4
2016-Aug-15 22:33N 46°41' E 031°56'10 9.6
2016-Aug-15 21:33N 46°36' E 031°44'10 9.3
2016-Aug-15 20:28N 46°36' E 031°29'1611.6
2016-Aug-15 19:04N 46°34' E 031°06'510.3
2016-Aug-15 18:32N 46°32' E 030°58'1111.3
2016-Aug-15 17:32N 46°21' E 030°57'334 9.8
2016-Aug-14 07:32N 40°58' E 028°59'3 0.1
2016-Aug-13 01:21N 40°58' E 028°56'  
Track history (hours):
 
Tides and Currents Weather Stations Pressure Air Temp Water Temp Dewpoint Dewpoint Depression Visibility Wind Speed Wind Dir Waves Ship Positions

Sukran S

Last reported at 2016-Aug-23 00:07 UTC. Time now 2016-Aug-24 08:33 UTC.
Position N 40°25' E 029°05'.

Length 108 m; draft 7.4 m.

Type: Cargo ship. MMSI: 271000056.

Date/timePositionNaut miles runAvg speedWind from/ knotsBaromVisibWave heightAir tempDewpointWater temp
2016-Aug-23 00:07N 40°25' E 029°05'0 0.0
2016-Aug-22 23:31N 40°25' E 029°05'0 0.0
2016-Aug-22 22:31N 40°25' E 029°05'0 0.0
2016-Aug-22 21:25N 40°25' E 029°05'0 0.0
2016-Aug-22 18:13N 40°25' E 029°05'0 0.0
2016-Aug-22 17:32N 40°25' E 029°05'0 0.0
2016-Aug-22 11:32N 40°25' E 029°05'0 0.0
2016-Aug-22 04:21N 40°25' E 029°05'0 0.0
2016-Aug-22 02:15N 40°25' E 029°05'0 0.0
2016-Aug-21 18:28N 40°25' E 029°05'0 0.0
2016-Aug-21 17:22N 40°25' E 029°05'0 0.0
2016-Aug-21 16:22N 40°25' E 029°05'0 0.0
2016-Aug-21 14:28N 40°25' E 029°05'0 0.0
2016-Aug-21 13:10N 40°25' E 029°05'26 0.8
2016-Aug-20 05:27N 40°49' E 028°53'1110.4
2016-Aug-20 04:25N 40°59' E 028°59'217 6.2
2016-Aug-18 17:32N 44°27' E 030°23'21 9.7
2016-Aug-18 15:23N 44°47' E 030°32'9 9.5
2016-Aug-18 14:28N 44°55' E 030°35'74 9.3
2016-Aug-18 06:31N 46°06' E 031°04'9 9.3
2016-Aug-18 05:33N 46°13' E 030°57'9 8.7
2016-Aug-18 04:33N 46°22' E 030°55'9 9.0
2016-Aug-18 03:33N 46°31' E 030°55'7 7.4
2016-Aug-18 02:33N 46°34' E 031°05'8 7.7
2016-Aug-18 01:33N 46°35' E 031°16'9 9.4
2016-Aug-18 00:33N 46°36' E 031°29'9 9.1
2016-Aug-17 23:33N 46°36' E 031°43'9 8.7
2016-Aug-17 22:33N 46°38' E 031°55'9 8.6
2016-Aug-17 21:33N 46°47' E 031°53'4 3.1
2016-Aug-17 20:13N 46°50' E 031°57'0 0.0
2016-Aug-17 19:18N 46°50' E 031°57'0 0.0
2016-Aug-17 18:30N 46°50' E 031°57'0 0.0
2016-Aug-17 17:33N 46°50' E 031°57'0 0.0
2016-Aug-17 16:32N 46°50' E 031°57'0 0.0
2016-Aug-17 15:32N 46°50' E 031°57'0 0.0
2016-Aug-17 14:33N 46°50' E 031°57'0 0.0
2016-Aug-17 13:32N 46°50' E 031°57'0 0.0
2016-Aug-17 12:31N 46°50' E 031°57'0 0.0
2016-Aug-17 11:33N 46°50' E 031°57'0 0.0
2016-Aug-17 10:33N 46°50' E 031°57'0 0.0
2016-Aug-17 09:33N 46°50' E 031°57'0 0.0
2016-Aug-17 08:33N 46°50' E 031°57'0 0.0
2016-Aug-17 07:33N 46°50' E 031°57'0 0.0
2016-Aug-17 06:19N 46°50' E 031°57'0 0.0
2016-Aug-17 05:32N 46°50' E 031°57'0 0.0
2016-Aug-17 04:29N 46°50' E 031°57'0 0.0
2016-Aug-17 03:32N 46°50' E 031°57'0 0.0
2016-Aug-17 02:31N 46°50' E 031°57'0 0.0
2016-Aug-17 01:32N 46°50' E 031°57'0 0.0
2016-Aug-17 00:29N 46°50' E 031°57'0 0.0
2016-Aug-16 23:31N 46°50' E 031°57'0 0.0
2016-Aug-16 22:31N 46°50' E 031°57'0 0.0
2016-Aug-16 21:32N 46°50' E 031°57'0 0.0
2016-Aug-16 20:32N 46°50' E 031°57'0 0.0
2016-Aug-16 19:30N 46°50' E 031°57'0 0.0
2016-Aug-16 18:26N 46°50' E 031°57'0 0.0
2016-Aug-16 17:31N 46°50' E 031°57'0 0.0
2016-Aug-16 16:32N 46°50' E 031°57'0 0.0
2016-Aug-16 15:32N 46°50' E 031°57'0 0.0
2016-Aug-16 14:31N 46°50' E 031°57'0 0.0
2016-Aug-16 13:33N 46°50' E 031°57'0 0.0
2016-Aug-16 12:31N 46°50' E 031°57'0 0.0
2016-Aug-16 11:32N 46°50' E 031°57'0 0.0
2016-Aug-16 10:33N 46°50' E 031°57'0 0.0
2016-Aug-16 09:32N 46°50' E 031°57'0 0.0
2016-Aug-16 08:33N 46°50' E 031°57'0 0.0
2016-Aug-16 07:31N 46°50' E 031°57'0 0.0
2016-Aug-16 04:31N 46°50' E 031°57'0 0.0
2016-Aug-16 03:32N 46°50' E 031°57'0 0.0
2016-Aug-16 02:30N 46°50' E 031°57'0 0.0
2016-Aug-16 01:33N 46°50' E 031°57'0 0.0
2016-Aug-16 00:33N 46°50' E 031°57'2 2.0
2016-Aug-15 23:33N 46°49' E 031°55'8 8.4
2016-Aug-15 22:33N 46°41' E 031°56'10 9.6
2016-Aug-15 21:33N 46°36' E 031°44'10 9.3
2016-Aug-15 20:28N 46°36' E 031°29'1611.6
2016-Aug-15 19:04N 46°34' E 031°06'510.3
2016-Aug-15 18:32N 46°32' E 030°58'1111.3
2016-Aug-15 17:32N 46°21' E 030°57'334 9.8
2016-Aug-14 07:32N 40°58' E 028°59'3 0.1
2016-Aug-13 01:21N 40°58' E 028°56'  

Dump ship's entire track history